Time;durP1;ratioP1;P1;durP2;ratioP2;P2;SDS_P1;SDS_P2;PMS_P1;PMS_P2;Temp;Humidity;BMP_temperature;BMP_pressure;BME280_temperature;BME280_humidity;BME280_pressure;Samples;Min_cycle;Max_cycle;Signal;HPM_P1;HPM_P2
2021/09/06 00:01:55;;;;;;;45.22;24.88;;;11.50;99.90;;;;;;4997938;28;20223;-69
2021/09/06 00:04:23;;;;;;;56.67;30.65;;;11.50;99.90;;;;;;5002015;28;20049;-70
2021/09/06 00:06:49;;;;;;;63.35;32.30;;;11.60;99.90;;;;;;5003284;28;20513;-70
2021/09/06 00:09:16;;;;;;;73.93;36.55;;;11.80;99.90;;;;;;5004090;28;20096;-70
2021/09/06 00:11:43;;;;;;;72.25;35.78;;;11.70;99.90;;;;;;5002926;28;20113;-70
2021/09/06 00:14:10;;;;;;;63.83;31.65;;;11.70;99.90;;;;;;5036802;28;20064;-70
2021/09/06 00:16:37;;;;;;;63.67;32.25;;;11.60;99.90;;;;;;5004151;28;20135;-70
2021/09/06 00:19:04;;;;;;;66.95;31.60;;;11.50;99.90;;;;;;5043978;28;20053;-70
2021/09/06 00:21:32;;;;;;;51.97;27.40;;;11.30;99.90;;;;;;5019231;28;20050;-70
2021/09/06 00:23:59;;;;;;;70.10;33.25;;;11.30;99.90;;;;;;5005220;28;20054;-70
2021/09/06 00:26:28;;;;;;;69.60;33.15;;;11.50;99.90;;;;;;5002382;28;20103;-69
2021/09/06 00:28:55;;;;;;;75.85;35.78;;;11.60;99.90;;;;;;5006085;28;20045;-70
2021/09/06 00:31:22;;;;;;;81.68;36.22;;;11.60;99.90;;;;;;5052979;28;20057;-69
2021/09/06 00:33:49;;;;;;;73.43;33.45;;;11.70;99.90;;;;;;5022599;28;20045;-70
2021/09/06 00:36:16;;;;;;;69.97;34.90;;;11.60;99.90;;;;;;5018932;28;20553;-70
2021/09/06 00:38:43;;;;;;;80.05;35.28;;;11.70;99.90;;;;;;5035502;28;20077;-69
2021/09/06 00:41:10;;;;;;;89.38;38.63;;;11.70;99.90;;;;;;5002155;28;20153;-70
2021/09/06 00:43:39;;;;;;;82.72;38.80;;;11.80;99.90;;;;;;4986844;28;20038;-72
2021/09/06 00:46:06;;;;;;;77.55;36.13;;;11.80;99.90;;;;;;5048676;28;20046;-69
2021/09/06 00:48:34;;;;;;;94.00;39.78;;;11.80;99.90;;;;;;5004404;28;20058;-70
2021/09/06 00:51:01;;;;;;;77.63;36.55;;;11.80;99.90;;;;;;5034941;28;20041;-69
2021/09/06 00:53:28;;;;;;;78.55;36.25;;;11.80;99.90;;;;;;5018245;28;20108;-70
2021/09/06 00:55:55;;;;;;;94.15;40.05;;;11.70;99.90;;;;;;5021895;28;20467;-70
2021/09/06 00:58:24;;;;;;;88.32;38.60;;;11.70;99.90;;;;;;4998515;28;20499;-70
2021/09/06 01:00:51;;;;;;;65.80;31.90;;;11.60;99.90;;;;;;4983399;28;20552;-70
2021/09/06 01:03:19;;;;;;;48.30;26.90;;;11.50;99.90;;;;;;4984983;28;20042;-70
2021/09/06 01:05:47;;;;;;;54.05;28.80;;;11.50;99.90;;;;;;5018282;28;20049;-70
2021/09/06 01:08:28;;;;;;;61.50;29.52;;;11.30;99.90;;;;;;5016475;28;20049;-70
2021/09/06 01:11:18;;;;;;;57.13;29.45;;;11.20;99.90;;;;;;5003976;28;20054;-70
2021/09/06 01:14:05;;;;;;;63.45;30.17;;;11.10;99.90;;;;;;4988946;28;20054;-70
2021/09/06 01:16:36;;;;;;;51.53;26.15;;;11.10;99.90;;;;;;5017976;28;20053;-70
2021/09/06 01:19:04;;;;;;;61.92;32.97;;;10.90;99.90;;;;;;5002291;28;20546;-70
2021/09/06 01:21:32;;;;;;;71.07;33.60;;;10.90;99.90;;;;;;5018335;28;20050;-70
2021/09/06 01:24:17;;;;;;;77.90;35.43;;;11.00;99.90;;;;;;5014873;28;20056;-69
2021/09/06 01:26:48;;;;;;;91.10;37.42;;;11.00;99.90;;;;;;5021425;28;20276;-70
2021/09/06 01:29:19;;;;;;;84.18;37.55;;;11.00;99.90;;;;;;5020520;28;20050;-70
2021/09/06 01:31:46;;;;;;;70.30;32.72;;;11.00;99.90;;;;;;5005067;28;20060;-69
2021/09/06 01:34:13;;;;;;;71.15;31.98;;;10.90;99.90;;;;;;4992683;28;20041;-70
2021/09/06 01:36:41;;;;;;;60.20;30.90;;;10.90;99.90;;;;;;5033508;28;20184;-70
2021/09/06 01:39:08;;;;;;;45.92;24.98;;;10.80;99.90;;;;;;5035078;28;20065;-69
2021/09/06 01:41:35;;;;;;;68.85;31.50;;;10.80;99.90;;;;;;5018203;28;20407;-70
2021/09/06 01:44:05;;;;;;;72.20;33.03;;;10.80;99.90;;;;;;5032405;28;20065;-70
2021/09/06 01:46:33;;;;;;;66.35;31.67;;;10.90;99.90;;;;;;5012693;28;20058;-70
2021/09/06 01:49:03;;;;;;;73.57;33.88;;;10.90;99.90;;;;;;5002611;28;20598;-70
2021/09/06 01:51:31;;;;;;;73.63;31.60;;;10.90;99.90;;;;;;5017644;28;20066;-70
2021/09/06 01:53:58;;;;;;;88.47;36.40;;;11.00;99.90;;;;;;5035638;28;20057;-69
2021/09/06 01:56:25;;;;;;;80.82;35.10;;;11.00;99.90;;;;;;5022063;28;20054;-70
2021/09/06 01:58:54;;;;;;;80.68;35.58;;;11.00;99.90;;;;;;5000387;28;20074;-70
2021/09/06 02:01:20;;;;;;;84.07;35.60;;;11.00;99.90;;;;;;5005023;28;20041;-70
2021/09/06 02:03:48;;;;;;;85.38;36.78;;;11.10;99.90;;;;;;5017672;23;20523;-69
2021/09/06 02:06:16;;;;;;;84.47;36.67;;;11.20;99.90;;;;;;5026230;28;20037;-69
2021/09/06 02:08:54;;;;;;;99.82;41.38;;;11.20;99.90;;;;;;5035138;28;20050;-69
2021/09/06 02:11:23;;;;;;;90.35;38.20;;;11.20;99.90;;;;;;5039671;28;20163;-70
2021/09/06 02:13:51;;;;;;;81.80;35.70;;;11.10;99.90;;;;;;5034633;28;20099;-70
2021/09/06 02:16:19;;;;;;;81.97;36.38;;;11.00;99.90;;;;;;5023012;28;20072;-70
2021/09/06 02:18:49;;;;;;;78.03;34.22;;;10.90;99.90;;;;;;4993160;28;20053;-70
2021/09/06 02:21:16;;;;;;;71.38;32.70;;;10.80;99.90;;;;;;5008829;28;20578;-70
2021/09/06 02:23:46;;;;;;;68.22;31.92;;;10.90;99.90;;;;;;5009981;28;20437;-69
2021/09/06 02:26:15;;;;;;;83.40;34.28;;;10.80;99.90;;;;;;5009297;28;20095;-69
2021/09/06 02:28:42;;;;;;;56.38;26.88;;;10.70;99.90;;;;;;5008164;28;20056;-68
2021/09/06 02:31:10;;;;;;;44.22;24.13;;;10.60;99.90;;;;;;5009163;28;20053;-69
2021/09/06 02:34:04;;;;;;;38.15;21.52;;;10.50;99.90;;;;;;5009033;28;20120;-69
2021/09/06 02:36:33;;;;;;;52.55;25.60;;;10.30;99.90;;;;;;5008374;28;20053;-71
2021/09/06 02:39:03;;;;;;;61.67;27.88;;;10.20;99.90;;;;;;5029156;28;20063;-71
2021/09/06 02:41:31;;;;;;;49.63;26.48;;;10.20;99.90;;;;;;5027898;28;20056;-69
2021/09/06 02:43:58;;;;;;;71.95;33.22;;;10.20;99.90;;;;;;5014176;28;20057;-71
2021/09/06 02:46:25;;;;;;;54.17;26.88;;;10.30;99.90;;;;;;4992620;28;20050;-71
2021/09/06 02:48:53;;;;;;;47.35;24.80;;;10.20;99.90;;;;;;4992485;28;20136;-71
2021/09/06 02:51:21;;;;;;;48.28;23.05;;;10.20;99.90;;;;;;5025305;28;20111;-71
2021/09/06 02:53:49;;;;;;;47.88;23.88;;;10.30;99.90;;;;;;5009319;28;20060;-71
2021/09/06 02:56:16;;;;;;;58.00;29.10;;;10.40;99.90;;;;;;5008277;28;20132;-71
2021/09/06 02:58:44;;;;;;;73.80;32.78;;;10.50;99.90;;;;;;5009436;28;20053;-71
2021/09/06 03:01:11;;;;;;;69.88;31.95;;;10.40;99.90;;;;;;5008755;28;20053;-71
2021/09/06 03:03:38;;;;;;;76.07;32.75;;;10.40;99.90;;;;;;4989764;28;20084;-69
2021/09/06 03:06:08;;;;;;;74.40;33.83;;;10.40;99.90;;;;;;5040481;28;20069;-69
2021/09/06 03:08:35;;;;;;;53.83;27.02;;;10.50;99.90;;;;;;5035679;28;20045;-69
2021/09/06 03:11:02;;;;;;;65.38;31.33;;;10.50;99.90;;;;;;5028876;28;20504;-69
2021/09/06 03:13:30;;;;;;;55.95;26.38;;;10.50;99.90;;;;;;5026815;28;20515;-71
2021/09/06 03:15:57;;;;;;;55.40;28.33;;;10.50;99.90;;;;;;5008820;28;20056;-69
2021/09/06 03:18:25;;;;;;;50.40;25.63;;;10.40;99.90;;;;;;5008751;28;20144;-69
2021/09/06 03:21:12;;;;;;;73.25;31.80;;;10.20;99.90;;;;;;5025208;28;20057;-69
2021/09/06 03:23:39;;;;;;;64.95;31.45;;;10.30;99.90;;;;;;5008698;28;20049;-70
2021/09/06 03:26:06;;;;;;;72.10;32.05;;;10.40;99.90;;;;;;5024927;28;20512;-70
2021/09/06 03:28:34;;;;;;;69.32;30.98;;;10.30;99.90;;;;;;5008648;28;20698;-70
2021/09/06 03:31:01;;;;;;;82.43;33.47;;;10.40;99.90;;;;;;5041521;28;20677;-69
2021/09/06 03:33:31;;;;;;;105.35;36.13;;;10.50;99.90;;;;;;5008293;28;20049;-70
2021/09/06 03:35:59;;;;;;;176.82;44.88;;;10.50;99.90;;;;;;4998304;28;20060;-70
2021/09/06 03:38:26;;;;;;;129.77;41.30;;;10.40;99.90;;;;;;5020039;28;20088;-70
2021/09/06 03:40:53;;;;;;;95.20;36.97;;;10.40;99.90;;;;;;5044794;28;20249;-70
2021/09/06 03:43:20;;;;;;;157.02;43.92;;;10.40;99.90;;;;;;5029842;28;20049;-69
2021/09/06 03:45:47;;;;;;;150.38;41.70;;;10.30;99.90;;;;;;5025679;28;20041;-71
2021/09/06 03:48:15;;;;;;;150.35;43.50;;;10.30;99.90;;;;;;5008014;28;20041;-69
2021/09/06 03:50:44;;;;;;;177.13;46.60;;;10.40;99.90;;;;;;5007937;28;20049;-69
2021/09/06 03:53:11;;;;;;;122.72;40.60;;;10.30;99.90;;;;;;5007798;28;20697;-69
2021/09/06 03:55:39;;;;;;;64.47;30.08;;;10.30;99.90;;;;;;5013874;28;20066;-69
2021/09/06 03:58:07;;;;;;;71.38;29.27;;;10.30;99.90;;;;;;5060753;28;20083;-69
2021/09/06 04:00:37;;;;;;;61.35;27.23;;;10.20;99.90;;;;;;5060048;28;20051;-69
2021/09/06 04:03:06;;;;;;;104.90;35.75;;;10.10;99.90;;;;;;5036924;28;20073;-69
2021/09/06 04:05:35;;;;;;;75.68;30.27;;;10.00;99.90;;;;;;5011325;28;20103;-70
2021/09/06 04:08:05;;;;;;;57.33;25.67;;;10.10;99.90;;;;;;5017498;28;20041;-69
2021/09/06 04:10:32;;;;;;;47.08;22.33;;;9.80;99.90;;;;;;5023843;28;20052;-70
2021/09/06 04:13:00;;;;;;;65.47;27.48;;;9.80;99.90;;;;;;5028306;28;20045;-69
2021/09/06 04:15:27;;;;;;;150.32;42.08;;;9.70;99.90;;;;;;4991197;28;20061;-70
2021/09/06 04:17:55;;;;;;;61.90;26.80;;;9.80;99.90;;;;;;5007928;28;20564;-70
2021/09/06 04:20:22;;;;;;;53.25;24.92;;;9.70;99.90;;;;;;5009726;28;20057;-70
2021/09/06 04:22:49;;;;;;;58.83;24.38;;;9.60;99.90;;;;;;4991441;28;20477;-70
2021/09/06 04:25:18;;;;;;;46.78;21.38;;;9.60;99.90;;;;;;4989524;28;20413;-72
2021/09/06 04:27:45;;;;;;;41.42;21.35;;;9.40;99.90;;;;;;5006981;28;20309;-71
2021/09/06 04:30:15;;;;;;;45.70;22.92;;;9.30;99.90;;;;;;5023373;28;20046;-71
2021/09/06 04:32:44;;;;;;;45.33;22.25;;;9.20;99.90;;;;;;4991166;28;20103;-71
2021/09/06 04:35:10;;;;;;;41.55;20.40;;;9.20;99.90;;;;;;5006077;28;20056;-72
2021/09/06 04:37:37;;;;;;;49.45;25.08;;;9.20;99.90;;;;;;5015212;28;20325;-71
2021/09/06 04:40:10;;;;;;;45.35;23.08;;;9.10;99.90;;;;;;5023518;28;20607;-71
2021/09/06 04:42:39;;;;;;;45.70;22.67;;;9.10;99.90;;;;;;5039982;28;20085;-70
2021/09/06 04:45:07;;;;;;;45.50;24.08;;;9.10;99.90;;;;;;5035286;28;20687;-71
2021/09/06 04:47:37;;;;;;;62.05;27.23;;;9.30;99.90;;;;;;4987080;28;20085;-71
2021/09/06 04:50:04;;;;;;;80.63;32.60;;;9.30;99.90;;;;;;5020075;28;20135;-71
2021/09/06 04:52:31;;;;;;;157.60;42.35;;;9.40;99.90;;;;;;4987342;28;20049;-71
2021/09/06 04:55:01;;;;;;;94.78;34.55;;;9.40;99.90;;;;;;4995605;28;20584;-71
2021/09/06 04:57:29;;;;;;;86.47;33.63;;;9.50;99.90;;;;;;5005989;28;20064;-71
2021/09/06 04:59:56;;;;;;;74.35;32.78;;;9.60;99.90;;;;;;5007190;28;20297;-71
2021/09/06 05:02:23;;;;;;;76.82;30.80;;;9.70;99.90;;;;;;4990001;28;20045;-71
2021/09/06 05:04:51;;;;;;;50.88;24.52;;;9.60;99.90;;;;;;5006022;28;20152;-71
2021/09/06 05:07:18;;;;;;;48.53;24.65;;;9.40;99.90;;;;;;5011157;28;20044;-71
2021/09/06 05:09:44;;;;;;;50.22;25.40;;;9.30;99.90;;;;;;5041482;28;20056;-72
2021/09/06 05:12:12;;;;;;;49.00;23.88;;;9.20;99.90;;;;;;5043788;28;20543;-70
2021/09/06 05:14:40;;;;;;;46.90;25.60;;;9.10;99.90;;;;;;5029890;28;20091;-70
2021/09/06 05:17:07;;;;;;;53.95;24.63;;;9.10;99.90;;;;;;5004810;28;20069;-70
2021/09/06 05:19:35;;;;;;;60.75;27.38;;;9.10;99.90;;;;;;5006876;28;20118;-71
2021/09/06 05:22:02;;;;;;;50.95;25.25;;;9.30;99.90;;;;;;4990227;28;20087;-71
2021/09/06 05:24:32;;;;;;;50.53;26.23;;;9.30;99.90;;;;;;5006761;28;20104;-71
2021/09/06 05:26:59;;;;;;;54.22;25.45;;;9.20;99.90;;;;;;5005826;28;20248;-70
2021/09/06 05:29:25;;;;;;;55.28;27.00;;;9.20;99.90;;;;;;5006122;28;20107;-70
2021/09/06 05:31:52;;;;;;;54.50;25.75;;;9.20;99.90;;;;;;5005534;28;20149;-71
2021/09/06 05:34:20;;;;;;;61.15;27.63;;;9.30;99.90;;;;;;5022461;28;20128;-71
2021/09/06 05:36:47;;;;;;;47.80;24.92;;;9.20;99.90;;;;;;4990965;28;20137;-71
2021/09/06 05:39:14;;;;;;;60.15;26.15;;;9.30;99.90;;;;;;5019304;28;20041;-70
2021/09/06 05:41:44;;;;;;;54.22;25.80;;;9.30;99.90;;;;;;5024208;28;20053;-70
2021/09/06 05:44:11;;;;;;;48.85;24.95;;;9.30;99.90;;;;;;5055762;28;20045;-71
2021/09/06 05:46:41;;;;;;;58.15;25.20;;;9.40;99.90;;;;;;5012650;28;20045;-70
2021/09/06 05:49:10;;;;;;;55.60;26.50;;;9.40;99.90;;;;;;5009583;28;20594;-71
2021/09/06 05:51:39;;;;;;;54.15;26.38;;;9.50;99.90;;;;;;5008959;28;20413;-71
2021/09/06 05:54:17;;;;;;;53.03;27.25;;;9.50;99.90;;;;;;5008432;28;20345;-69
2021/09/06 05:56:44;;;;;;;50.22;25.30;;;9.50;99.90;;;;;;5018588;28;20125;-71
2021/09/06 05:59:11;;;;;;;57.25;27.05;;;9.60;99.90;;;;;;5009615;28;20045;-71
2021/09/06 06:01:39;;;;;;;47.90;25.38;;;9.70;99.90;;;;;;5009123;28;20050;-71
2021/09/06 06:04:07;;;;;;;60.25;26.95;;;9.80;99.90;;;;;;5007389;28;20308;-72
2021/09/06 06:06:36;;;;;;;60.00;27.15;;;9.80;99.90;;;;;;5020318;28;20049;-69
2021/09/06 06:09:04;;;;;;;63.70;28.10;;;10.00;99.90;;;;;;5031795;28;20041;-69
2021/09/06 06:11:32;;;;;;;56.72;28.33;;;10.20;99.90;;;;;;5028439;28;20505;-71
2021/09/06 06:13:59;;;;;;;53.40;27.90;;;10.20;99.90;;;;;;5029283;28;20144;-71
2021/09/06 06:16:26;;;;;;;56.30;27.45;;;10.30;99.90;;;;;;5023120;28;20135;-71
2021/09/06 06:18:55;;;;;;;50.67;26.48;;;10.50;99.90;;;;;;5024766;28;20056;-71
2021/09/06 06:21:24;;;;;;;63.97;31.23;;;10.70;99.90;;;;;;5043893;28;20376;-71
2021/09/06 06:23:58;;;;;;;52.00;26.52;;;10.70;99.90;;;;;;5024617;28;20045;-71
2021/09/06 06:26:39;;;;;;;56.90;30.35;;;10.70;99.90;;;;;;5008213;28;20056;-71
2021/09/06 06:29:10;;;;;;;68.32;32.53;;;10.90;99.90;;;;;;4995210;28;20076;-71
2021/09/06 06:31:38;;;;;;;57.55;29.00;;;11.10;99.90;;;;;;5020999;28;20050;-71
2021/09/06 06:34:06;;;;;;;57.95;29.17;;;11.10;99.90;;;;;;5003636;28;20077;-71
2021/09/06 06:36:35;;;;;;;56.13;30.20;;;11.20;99.90;;;;;;5012389;28;20100;-71
2021/09/06 06:39:11;;;;;;;55.60;28.75;;;11.40;99.90;;;;;;5037809;28;20053;-71
2021/09/06 06:41:40;;;;;;;62.38;31.20;;;11.60;99.90;;;;;;5026089;28;20279;-71
2021/09/06 06:44:09;;;;;;;49.47;29.10;;;11.70;99.90;;;;;;5047828;28;20053;-71
2021/09/06 06:46:36;;;;;;;58.22;29.48;;;11.90;99.90;;;;;;5033567;28;20056;-71
2021/09/06 06:49:03;;;;;;;51.90;28.73;;;11.90;99.90;;;;;;5028313;28;20402;-71
2021/09/06 06:51:34;;;;;;;56.15;31.25;;;11.90;99.90;;;;;;5027488;28;20054;-71
2021/09/06 06:54:01;;;;;;;56.28;31.60;;;12.10;99.90;;;;;;5027874;28;20057;-71
2021/09/06 06:56:33;;;;;;;53.78;31.05;;;12.20;99.90;;;;;;5029007;28;20077;-71
2021/09/06 06:59:07;;;;;;;54.42;29.20;;;12.40;99.90;;;;;;5008129;28;20425;-71
2021/09/06 07:01:34;;;;;;;49.17;29.63;;;12.60;99.90;;;;;;5008178;28;20084;-70
2021/09/06 07:04:02;;;;;;;47.55;26.95;;;12.80;99.90;;;;;;5012289;28;20501;-71
2021/09/06 07:06:31;;;;;;;48.08;27.73;;;13.10;99.90;;;;;;5017461;28;20626;-69
2021/09/06 07:08:58;;;;;;;53.42;29.05;;;13.60;99.90;;;;;;5025109;28;20882;-70
2021/09/06 07:11:25;;;;;;;46.17;29.23;;;14.00;99.90;;;;;;5003901;28;20057;-69
2021/09/06 07:13:57;;;;;;;37.88;22.58;;;14.40;99.90;;;;;;5018349;28;20115;-69
2021/09/06 07:16:24;;;;;;;38.20;22.50;;;15.00;99.90;;;;;;5018067;28;20418;-69
2021/09/06 07:18:51;;;;;;;30.65;21.40;;;15.40;99.90;;;;;;4992409;28;20049;-70
2021/09/06 07:21:19;;;;;;;30.92;21.98;;;15.80;99.90;;;;;;5024089;28;20144;-69
2021/09/06 07:23:46;;;;;;;32.63;21.70;;;16.10;99.90;;;;;;4992093;28;20485;-71
2021/09/06 07:26:13;;;;;;;34.55;22.58;;;16.40;99.90;;;;;;5041422;28;20099;-71
2021/09/06 07:28:40;;;;;;;30.25;20.85;;;16.90;99.90;;;;;;5008242;28;20037;-71
2021/09/06 07:31:10;;;;;;;31.70;21.77;;;17.30;99.90;;;;;;5007687;28;20099;-71
2021/09/06 07:33:37;;;;;;;34.15;23.35;;;17.70;99.90;;;;;;5012340;28;20053;-71
2021/09/06 07:36:05;;;;;;;29.48;22.23;;;18.10;99.90;;;;;;5025725;28;20135;-71
2021/09/06 07:38:32;;;;;;;34.08;24.02;;;18.60;99.90;;;;;;5019418;28;20616;-71
2021/09/06 07:40:59;;;;;;;32.80;25.45;;;19.00;99.90;;;;;;5019208;28;20500;-71
2021/09/06 07:43:26;;;;;;;36.63;25.60;;;19.30;99.90;;;;;;4994734;28;20180;-71
2021/09/06 07:45:53;;;;;;;35.58;27.15;;;19.60;99.90;;;;;;5008421;28;20049;-71
2021/09/06 07:48:21;;;;;;;32.38;26.23;;;19.70;99.90;;;;;;4991189;28;20132;-71
2021/09/06 07:50:51;;;;;;;33.38;27.67;;;20.20;99.90;;;;;;5007914;28;20444;-68
2021/09/06 07:53:18;;;;;;;33.58;29.85;;;20.50;99.90;;;;;;5010275;28;20053;-70
2021/09/06 07:55:44;;;;;;;36.67;27.50;;;20.70;99.90;;;;;;5019422;28;20045;-71
2021/09/06 07:58:11;;;;;;;35.17;30.45;;;20.70;99.90;;;;;;5039030;28;20063;-69
2021/09/06 08:00:40;;;;;;;35.53;30.70;;;20.80;99.90;;;;;;5030242;28;20049;-68
2021/09/06 08:03:07;;;;;;;39.80;31.67;;;21.00;99.90;;;;;;5007762;28;20045;-70
2021/09/06 08:05:36;;;;;;;38.67;31.50;;;21.40;99.90;;;;;;5068900;23;20498;-78
2021/09/06 08:08:08;;;;;;;38.97;33.85;;;21.50;99.90;;;;;;5034897;28;20051;-79
2021/09/06 08:10:36;;;;;;;40.30;33.38;;;21.60;99.90;;;;;;5002256;28;20085;-78
2021/09/06 08:13:03;;;;;;;42.05;33.47;;;21.60;99.90;;;;;;5000232;28;20080;-79
2021/09/06 08:15:32;;;;;;;41.45;33.60;;;21.70;99.90;;;;;;5008775;28;20037;-80
2021/09/06 08:18:03;;;;;;;43.65;32.78;;;21.60;99.90;;;;;;5023374;28;20075;-81
2021/09/06 08:20:32;;;;;;;38.75;32.35;;;21.60;99.90;;;;;;5017918;28;20045;-80
2021/09/06 08:22:59;;;;;;;35.50;31.35;;;21.80;99.90;;;;;;4992649;28;20045;-81
2021/09/06 08:25:26;;;;;;;41.33;33.28;;;21.80;99.90;;;;;;5024804;28;20049;-79
2021/09/06 08:27:52;;;;;;;36.15;32.28;;;22.10;99.90;;;;;;5045719;28;20049;-81
2021/09/06 08:30:20;;;;;;;39.00;33.67;;;22.50;99.90;;;;;;5010658;28;20423;-79
2021/09/06 08:32:49;;;;;;;37.63;33.25;;;22.60;99.90;;;;;;5025835;28;20406;-79
2021/09/06 08:35:16;;;;;;;41.85;35.67;;;22.60;99.90;;;;;;5008853;28;20541;-82
2021/09/06 08:37:43;;;;;;;37.53;32.00;;;22.80;99.90;;;;;;5017079;28;20052;-80
2021/09/06 08:40:12;;;;;;;42.97;35.28;;;22.80;99.90;;;;;;5010354;28;20052;-80
2021/09/06 08:42:39;;;;;;;38.50;34.17;;;22.90;99.90;;;;;;5015497;28;20065;-81
2021/09/06 08:45:08;;;;;;;44.22;36.17;;;23.00;99.90;;;;;;4997633;28;20045;-79
2021/09/06 08:47:37;;;;;;;39.83;34.63;;;23.00;99.90;;;;;;4996058;28;20038;-81
2021/09/06 08:50:09;;;;;;;40.83;35.58;;;23.00;99.90;;;;;;5015485;28;20034;-82
2021/09/06 08:52:38;;;;;;;44.22;36.63;;;22.90;99.90;;;;;;5015966;28;20052;-81
2021/09/06 08:55:06;;;;;;;42.10;34.80;;;22.70;99.90;;;;;;5002940;28;20272;-80
2021/09/06 08:57:34;;;;;;;46.80;36.75;;;22.80;99.90;;;;;;5000211;28;20095;-80
2021/09/06 09:00:05;;;;;;;39.65;34.22;;;22.90;99.90;;;;;;4994862;28;20049;-80
2021/09/06 09:02:53;;;;;;;44.60;35.95;;;23.00;99.90;;;;;;4995006;28;20046;-81
2021/09/06 09:06:04;;;;;;;40.83;36.33;;;23.20;99.90;;;;;;5016740;28;20532;-79
2021/09/06 09:08:50;;;;;;;40.35;36.00;;;23.60;99.90;;;;;;5012822;28;20220;-79
2021/09/06 09:11:29;;;;;;;38.47;33.92;;;23.30;99.90;;;;;;5013805;28;20057;-80
2021/09/06 09:14:13;;;;;;;37.95;33.88;;;23.50;99.90;;;;;;4989915;28;20482;-81
2021/09/06 09:17:19;;;;;;;39.67;35.13;;;23.50;99.90;;;;;;4992484;28;20061;-79
2021/09/06 09:20:13;;;;;;;40.33;35.78;;;23.50;99.90;;;;;;4982213;28;20057;-79
2021/09/06 09:23:03;;;;;;;39.17;34.92;;;23.70;99.90;;;;;;4992308;28;20577;-81
2021/09/06 09:26:00;;;;;;;35.78;31.63;;;23.90;99.90;;;;;;5007246;28;20065;-79
2021/09/06 09:28:46;;;;;;;39.30;35.05;;;23.80;99.90;;;;;;5029125;28;20395;-79
2021/09/06 09:31:52;;;;;;;37.92;32.85;;;24.00;99.90;;;;;;4976632;28;20052;-81
2021/09/06 09:34:45;;;;;;;37.35;33.33;;;24.10;99.90;;;;;;5007267;28;20117;-79
2021/09/06 09:37:28;;;;;;;41.35;35.53;;;24.10;99.90;;;;;;4996207;28;20508;-80
2021/09/06 09:39:58;;;;;;;37.70;33.50;;;24.20;99.90;;;;;;4988077;28;20058;-81
2021/09/06 09:42:28;;;;;;;36.47;32.45;;;24.20;99.90;;;;;;4988152;28;20050;-81
2021/09/06 09:44:57;;;;;;;35.97;32.17;;;24.10;99.90;;;;;;5007524;28;20461;-80
2021/09/06 09:47:55;;;;;;;36.05;31.92;;;24.00;99.90;;;;;;4988127;28;20047;-79
2021/09/06 09:50:24;;;;;;;35.20;31.42;;;24.10;99.90;;;;;;4991181;28;20060;-80
2021/09/06 09:52:55;;;;;;;35.30;31.60;;;24.20;99.90;;;;;;5008078;28;20164;-79
2021/09/06 09:55:26;;;;;;;39.33;33.17;;;24.40;99.90;;;;;;4993163;28;20106;-80
2021/09/06 09:57:53;;;;;;;38.05;33.53;;;24.50;99.90;;;;;;5037484;28;20060;-80
2021/09/06 10:00:20;;;;;;;33.72;30.30;;;24.30;99.90;;;;;;5014087;28;20047;-79
2021/09/06 10:02:55;;;;;;;32.10;28.92;;;24.40;99.90;;;;;;5006244;28;20480;-79
2021/09/06 10:05:30;;;;;;;35.05;30.63;;;24.60;99.90;;;;;;5006847;28;20057;-80
2021/09/06 10:08:01;;;;;;;33.22;29.83;;;24.70;99.90;;;;;;5024156;28;20133;-79
2021/09/06 10:10:34;;;;;;;34.05;30.27;;;24.70;99.90;;;;;;4987553;28;20068;-79
2021/09/06 10:13:05;;;;;;;35.20;31.55;;;24.80;99.90;;;;;;5005844;28;20042;-80
2021/09/06 10:15:35;;;;;;;35.00;31.38;;;25.00;99.90;;;;;;5002421;28;20409;-81
2021/09/06 10:18:21;;;;;;;35.47;31.75;;;25.00;99.90;;;;;;4992928;28;20131;-79
2021/09/06 10:20:52;;;;;;;34.70;31.15;;;24.80;99.90;;;;;;5020411;28;20048;-82
2021/09/06 10:23:21;;;;;;;34.33;30.92;;;24.80;99.90;;;;;;5007408;28;20034;-80
2021/09/06 10:25:55;;;;;;;33.50;30.00;;;24.90;99.90;;;;;;5003410;28;20402;-80
2021/09/06 10:28:31;;;;;;;33.88;30.63;;;24.90;99.90;;;;;;5000830;28;20056;-80
2021/09/06 10:30:59;;;;;;;34.50;31.02;;;25.00;99.90;;;;;;5040040;28;20049;-79
2021/09/06 10:33:31;;;;;;;33.90;30.50;;;25.00;99.90;;;;;;5020231;28;20103;-81
2021/09/06 10:36:14;;;;;;;33.80;30.50;;;24.90;99.90;;;;;;4992520;28;20042;-81
2021/09/06 10:38:44;;;;;;;32.55;29.55;;;25.20;99.90;;;;;;5025869;28;20046;-80
2021/09/06 10:41:19;;;;;;;34.38;29.13;;;25.30;99.90;;;;;;5041957;28;20056;-79
2021/09/06 10:43:53;;;;;;;32.13;29.05;;;25.40;99.90;;;;;;5009678;28;20046;-79
2021/09/06 10:46:24;;;;;;;31.42;28.52;;;25.40;99.90;;;;;;5042278;28;20053;-79
2021/09/06 10:48:53;;;;;;;30.85;28.02;;;25.20;99.90;;;;;;4995398;28;20486;-79
2021/09/06 10:51:37;;;;;;;32.85;29.70;;;25.00;99.90;;;;;;5013242;28;20053;-81
2021/09/06 10:54:08;;;;;;;30.80;27.83;;;24.80;99.90;;;;;;5012211;28;20649;-81
2021/09/06 10:56:37;;;;;;;31.00;28.15;;;24.70;99.90;;;;;;5001941;28;20050;-83
2021/09/06 10:59:05;;;;;;;31.30;28.30;;;24.60;99.90;;;;;;5032517;28;20052;-80
2021/09/06 11:01:32;;;;;;;31.20;27.98;;;24.60;99.90;;;;;;4999705;28;20069;-81
2021/09/06 11:04:01;;;;;;;34.10;30.42;;;24.50;99.90;;;;;;5028569;28;20050;-80
2021/09/06 11:06:30;;;;;;;32.33;29.15;;;24.70;99.90;;;;;;5001233;28;20053;-81
2021/09/06 11:09:00;;;;;;;31.88;28.60;;;24.90;99.90;;;;;;5023098;28;20081;-82
2021/09/06 11:11:32;;;;;;;30.55;27.30;;;24.90;99.90;;;;;;5034702;28;20081;-81
2021/09/06 11:14:01;;;;;;;29.55;26.88;;;25.20;99.90;;;;;;5010847;28;20114;-82
2021/09/06 11:16:38;;;;;;;29.27;26.50;;;25.20;99.90;;;;;;5017278;28;20046;-81
2021/09/06 11:19:13;;;;;;;28.77;26.20;;;25.10;99.90;;;;;;5008301;28;20054;-80
2021/09/06 11:21:40;;;;;;;29.85;27.05;;;24.80;99.90;;;;;;4992387;28;20080;-82
2021/09/06 11:24:07;;;;;;;32.42;29.23;;;24.50;99.90;;;;;;5027161;28;20105;-82
2021/09/06 11:26:34;;;;;;;32.05;28.98;;;24.50;99.90;;;;;;4996510;28;20579;-82
2021/09/06 11:29:03;;;;;;;31.10;28.20;;;24.50;99.90;;;;;;5022620;28;20072;-80
2021/09/06 11:31:32;;;;;;;31.75;28.80;;;24.30;99.90;;;;;;5028468;28;20053;-84
2021/09/06 11:34:05;;;;;;;30.35;27.55;;;24.30;99.90;;;;;;5023325;28;20061;-80
2021/09/06 11:36:33;;;;;;;31.17;28.15;;;24.30;99.90;;;;;;5027812;28;20067;-81
2021/09/06 11:39:05;;;;;;;29.65;27.05;;;24.30;99.90;;;;;;5025320;28;20140;-80
2021/09/06 11:41:35;;;;;;;29.83;27.20;;;24.20;99.90;;;;;;5029597;28;20053;-82
2021/09/06 11:44:02;;;;;;;31.02;28.13;;;24.10;99.90;;;;;;5011650;28;20045;-80
2021/09/06 11:46:30;;;;;;;29.83;27.10;;;24.10;99.90;;;;;;4995453;28;20080;-80
2021/09/06 11:49:01;;;;;;;29.88;27.08;;;23.90;99.90;;;;;;5015614;28;20052;-80
2021/09/06 11:51:28;;;;;;;31.30;28.15;;;23.90;99.90;;;;;;5003753;28;20041;-80
2021/09/06 11:54:02;;;;;;;29.63;26.75;;;23.80;99.90;;;;;;5011419;28;20048;-80
2021/09/06 11:56:29;;;;;;;30.83;28.13;;;23.80;99.90;;;;;;5028051;28;20846;-80
2021/09/06 11:58:59;;;;;;;30.45;27.58;;;23.90;99.90;;;;;;5019092;28;20167;-82
2021/09/06 12:01:27;;;;;;;30.10;27.40;;;24.00;99.90;;;;;;5012453;28;20045;-82
2021/09/06 12:04:12;;;;;;;30.90;27.67;;;24.10;99.90;;;;;;5018745;28;20654;-79
2021/09/06 12:06:41;;;;;;;30.08;27.17;;;24.20;99.90;;;;;;5011425;28;20117;-79
2021/09/06 12:09:10;;;;;;;32.30;29.27;;;24.30;99.90;;;;;;5011026;28;20049;-81
2021/09/06 12:11:49;;;;;;;31.15;27.92;;;24.40;99.90;;;;;;5010896;28;20129;-81
2021/09/06 12:14:17;;;;;;;29.10;26.38;;;24.50;99.90;;;;;;5026775;28;20117;-81
2021/09/06 12:16:44;;;;;;;31.75;28.63;;;24.60;99.90;;;;;;5010510;28;20052;-81
2021/09/06 12:19:19;;;;;;;29.63;26.92;;;24.60;99.90;;;;;;5007582;28;20620;-82
2021/09/06 12:21:47;;;;;;;29.90;27.08;;;24.90;99.90;;;;;;5025589;28;20076;-81
2021/09/06 12:24:24;;;;;;;30.70;27.92;;;24.90;99.90;;;;;;5025802;28;20141;-80
2021/09/06 12:26:52;;;;;;;30.17;27.33;;;24.90;99.90;;;;;;5029721;28;20116;-84
2021/09/06 12:29:31;;;;;;;29.70;26.73;;;24.80;99.90;;;;;;5001042;28;20120;-80
2021/09/06 12:31:59;;;;;;;31.48;28.48;;;24.60;99.90;;;;;;5009120;28;20042;-80
2021/09/06 12:34:26;;;;;;;30.38;27.58;;;24.70;99.90;;;;;;4992544;28;20054;-82
2021/09/06 12:36:58;;;;;;;31.35;28.20;;;24.80;99.90;;;;;;4994800;28;20057;-80
2021/09/06 12:39:27;;;;;;;29.08;26.52;;;25.10;99.90;;;;;;4993799;28;20697;-79
2021/09/06 12:41:54;;;;;;;29.50;26.73;;;25.10;99.90;;;;;;5008523;28;20136;-79
2021/09/06 12:44:21;;;;;;;30.67;27.58;;;25.00;99.90;;;;;;5010020;28;20092;-80